createdAt,value
2024-04-21T00:00:10.816Z,683.50
2024-04-21T00:01:06.184Z,683.50
2024-04-21T00:02:01.070Z,683.52
2024-04-21T00:02:56.111Z,683.50
2024-04-21T00:03:51.275Z,683.50
2024-04-21T00:04:46.656Z,683.54
2024-04-21T00:05:41.819Z,683.56
2024-04-21T00:06:37.128Z,683.62
2024-04-21T00:07:31.987Z,683.60
2024-04-21T00:08:27.077Z,683.62
2024-04-21T00:09:22.201Z,683.56
2024-04-21T00:10:17.446Z,683.52
2024-04-21T00:11:12.577Z,683.50
2024-04-21T00:12:07.761Z,683.50
2024-04-21T00:13:02.992Z,683.58
2024-04-21T00:13:58.055Z,683.60
2024-04-21T00:14:53.168Z,683.65
2024-04-21T00:15:48.333Z,683.58
2024-04-21T00:16:43.534Z,683.50
2024-04-21T00:17:38.484Z,683.46
2024-04-21T00:18:33.543Z,683.50
2024-04-21T00:19:28.594Z,683.52
2024-04-21T00:20:23.697Z,683.56
2024-04-21T00:21:18.898Z,683.54
2024-04-21T00:22:14.264Z,683.56
2024-04-21T00:23:09.062Z,683.54
2024-04-21T00:24:04.262Z,683.54
2024-04-21T00:24:59.378Z,683.52
2024-04-21T00:25:54.446Z,683.52
2024-04-21T00:26:49.650Z,683.48
2024-04-21T00:27:44.690Z,683.44
2024-04-21T00:28:39.796Z,683.46
2024-04-21T00:29:34.940Z,683.44
2024-04-21T00:30:30.055Z,683.42
2024-04-21T00:31:25.215Z,683.44
2024-04-21T00:32:20.272Z,683.44
2024-04-21T00:33:15.674Z,683.40
2024-04-21T00:34:10.592Z,683.44
2024-04-21T00:35:05.518Z,683.44
2024-04-21T00:36:00.665Z,683.36
2024-04-21T00:36:55.977Z,683.34
2024-04-21T00:37:51.113Z,683.28
2024-04-21T00:38:46.088Z,683.28
2024-04-21T00:39:41.202Z,683.28
2024-04-21T00:40:36.311Z,683.30
2024-04-21T00:41:31.438Z,683.28
2024-04-21T00:42:26.567Z,683.26
2024-04-21T00:43:21.864Z,683.28
2024-04-21T00:44:16.741Z,683.26
2024-04-21T00:45:19.329Z,683.16
2024-04-21T00:46:08.055Z,683.12
2024-04-21T00:47:02.126Z,683.12
2024-04-21T00:47:57.375Z,683.08
2024-04-21T00:48:52.298Z,683.14
2024-04-21T00:49:47.551Z,683.16
2024-04-21T00:50:42.639Z,683.16
2024-04-21T00:51:37.873Z,683.18
2024-04-21T00:52:32.931Z,683.22
2024-04-21T00:53:28.202Z,683.28
2024-04-21T00:54:23.123Z,683.24
2024-04-21T00:55:18.258Z,683.20
2024-04-21T00:56:13.464Z,683.16
2024-04-21T00:57:08.563Z,683.16
2024-04-21T00:58:03.641Z,683.18
2024-04-21T00:58:58.874Z,683.20
2024-04-21T00:59:53.855Z,683.12
2024-04-21T01:00:49.022Z,683.10
2024-04-21T01:01:44.158Z,683.04
2024-04-21T01:02:39.451Z,682.99
2024-04-21T01:03:34.587Z,682.97
2024-04-21T01:04:29.790Z,683.01
2024-04-21T01:05:24.755Z,682.99
2024-04-21T01:06:19.866Z,683.02
2024-04-21T01:07:15.055Z,683.08
2024-04-21T01:08:10.399Z,683.08
2024-04-21T01:09:05.443Z,683.14
2024-04-21T01:10:00.651Z,683.14
2024-04-21T01:10:55.733Z,683.16
2024-04-21T01:11:51.095Z,683.10
2024-04-21T01:12:46.074Z,683.14
2024-04-21T01:13:41.270Z,683.22
2024-04-21T01:14:36.331Z,683.40
2024-04-21T01:15:31.388Z,683.52
2024-04-21T01:16:26.474Z,683.56
2024-04-21T01:17:21.721Z,683.62
2024-04-21T01:18:16.984Z,683.58
2024-04-21T01:19:12.141Z,683.58
2024-04-21T01:20:07.353Z,683.54
2024-04-21T01:21:02.684Z,683.50
2024-04-21T01:21:57.902Z,683.50
2024-04-21T01:22:52.989Z,683.54
2024-04-21T01:23:48.262Z,683.58
2024-04-21T01:24:43.172Z,683.60
2024-04-21T01:25:38.341Z,683.62
2024-04-21T01:26:33.504Z,683.58
2024-04-21T01:27:28.629Z,683.65
2024-04-21T01:28:23.957Z,683.64
2024-04-21T01:29:18.932Z,683.58
2024-04-21T01:30:14.024Z,683.65
2024-04-21T01:31:09.240Z,683.71
2024-04-21T01:32:04.434Z,683.73
2024-04-21T01:32:59.714Z,683.71
2024-04-21T01:33:54.543Z,683.69
2024-04-21T01:34:49.587Z,683.64
2024-04-21T01:35:44.631Z,683.67
2024-04-21T01:36:39.743Z,683.67
2024-04-21T01:37:34.793Z,683.67
2024-04-21T01:38:30.037Z,683.62
2024-04-21T01:39:25.029Z,683.62
2024-04-21T01:40:20.192Z,683.56
2024-04-21T01:41:15.429Z,683.64
2024-04-21T01:42:10.688Z,683.65
2024-04-21T01:43:05.764Z,683.64
2024-04-21T01:44:00.872Z,683.62
2024-04-21T01:44:55.949Z,683.58
2024-04-21T01:45:51.042Z,683.58
2024-04-21T01:46:46.211Z,683.62
2024-04-21T01:47:41.395Z,683.64
2024-04-21T01:48:36.496Z,683.62
2024-04-21T01:49:31.531Z,683.64
2024-04-21T01:50:26.602Z,683.62
2024-04-21T01:51:21.721Z,683.60
2024-04-21T01:52:16.989Z,683.56
2024-04-21T01:53:12.027Z,683.54
2024-04-21T01:54:07.136Z,683.54
2024-04-21T01:55:02.274Z,683.52
2024-04-21T01:55:57.327Z,683.48
2024-04-21T01:56:52.417Z,683.54
2024-04-21T01:57:47.623Z,683.64
2024-04-21T01:58:42.875Z,683.62
2024-04-21T01:59:37.828Z,683.58
2024-04-21T02:00:33.101Z,683.54
2024-04-21T02:01:28.297Z,683.52
2024-04-21T02:02:23.576Z,683.34
2024-04-21T02:03:18.624Z,683.18
2024-04-21T02:04:13.832Z,683.14
2024-04-21T02:05:08.813Z,683.04
2024-04-21T02:06:03.918Z,683.04
2024-04-21T02:06:59.237Z,683.08
2024-04-21T02:07:54.244Z,683.08
2024-04-21T02:08:49.274Z,683.10
2024-04-21T02:09:44.487Z,683.08
2024-04-21T02:10:39.530Z,683.06
2024-04-21T02:11:34.753Z,683.04
2024-04-21T02:12:29.906Z,683.04
2024-04-21T02:13:25.031Z,683.01
2024-04-21T02:14:20.065Z,682.97
2024-04-21T02:15:15.449Z,682.97
2024-04-21T02:16:10.409Z,682.93
2024-04-21T02:17:05.849Z,682.91
2024-04-21T02:18:01.016Z,682.95
2024-04-21T02:18:56.245Z,682.89
2024-04-21T02:19:51.310Z,682.89
2024-04-21T02:20:46.564Z,682.93
2024-04-21T02:21:42.777Z,682.95
2024-04-21T02:22:37.855Z,682.99
2024-04-21T02:23:33.039Z,683.06
2024-04-21T02:24:28.185Z,683.08
2024-04-21T02:25:23.484Z,683.04
2024-04-21T02:26:18.706Z,683.08
2024-04-21T02:27:13.648Z,683.02
2024-04-21T02:28:08.853Z,682.95
2024-04-21T02:29:04.622Z,682.95
2024-04-21T02:29:59.876Z,682.91
2024-04-21T02:30:55.029Z,682.91
2024-04-21T02:31:51.353Z,682.89
2024-04-21T02:32:46.672Z,682.85
2024-04-21T02:33:42.328Z,682.81
2024-04-21T02:34:37.453Z,682.81
2024-04-21T02:35:32.792Z,682.79
2024-04-21T02:36:28.518Z,682.87
2024-04-21T02:37:23.738Z,682.87
2024-04-21T02:38:19.422Z,682.91
2024-04-21T02:39:14.724Z,682.95
2024-04-21T02:40:09.919Z,682.95
2024-04-21T02:41:05.826Z,682.93
2024-04-21T02:42:00.862Z,682.91
2024-04-21T02:42:56.062Z,682.87
2024-04-21T02:43:52.239Z,682.93
2024-04-21T02:44:47.589Z,682.91
2024-04-21T02:45:43.238Z,682.85
2024-04-21T02:46:38.562Z,682.91
2024-04-21T02:47:33.608Z,682.91
2024-04-21T02:48:29.455Z,682.89
2024-04-21T02:49:24.711Z,682.95
2024-04-21T02:50:20.503Z,683.04
2024-04-21T02:51:15.777Z,683.04
2024-04-21T02:52:10.701Z,683.10
2024-04-21T02:53:06.515Z,683.14
2024-04-21T02:54:01.601Z,683.14
2024-04-21T02:54:56.925Z,683.12
2024-04-21T02:55:52.916Z,683.10
2024-04-21T02:56:48.228Z,683.08
2024-04-21T02:57:43.915Z,683.12
2024-04-21T02:58:39.130Z,683.10
2024-04-21T02:59:34.368Z,683.01
2024-04-21T03:00:30.207Z,682.93
2024-04-21T03:01:25.702Z,682.91
2024-04-21T03:02:21.248Z,682.95
2024-04-21T03:03:16.401Z,682.97
2024-04-21T03:04:11.853Z,683.01
2024-04-21T03:05:08.026Z,683.02
2024-04-21T03:06:02.738Z,682.99
2024-04-21T03:06:57.974Z,682.93
2024-04-21T03:07:54.031Z,682.85
2024-04-21T03:08:49.162Z,682.83
2024-04-21T03:09:45.004Z,682.85
2024-04-21T03:10:40.158Z,682.93
2024-04-21T03:11:35.646Z,682.93
2024-04-21T03:12:31.224Z,682.97
2024-04-21T03:13:26.392Z,682.99
2024-04-21T03:14:22.193Z,682.99
2024-04-21T03:15:17.286Z,682.97
2024-04-21T03:16:12.496Z,682.97
2024-04-21T03:17:08.480Z,682.95
2024-04-21T03:18:03.741Z,682.99
2024-04-21T03:18:58.789Z,683.06
2024-04-21T03:19:55.244Z,683.12
2024-04-21T03:20:50.388Z,683.12
2024-04-21T03:21:46.290Z,683.12
2024-04-21T03:22:41.347Z,683.16
2024-04-21T03:23:36.478Z,683.22
2024-04-21T03:24:32.305Z,683.26
2024-04-21T03:25:27.520Z,683.28
2024-04-21T03:26:23.238Z,683.30
2024-04-21T03:27:18.322Z,683.28
2024-04-21T03:28:13.717Z,683.30
2024-04-21T03:29:09.020Z,683.32
2024-04-21T03:30:03.974Z,683.32
2024-04-21T03:31:00.806Z,683.26
2024-04-21T03:31:55.803Z,683.24
2024-04-21T03:32:51.955Z,683.22
2024-04-21T03:33:46.775Z,683.22
2024-04-21T03:34:42.012Z,683.24
2024-04-21T03:35:37.825Z,683.22
2024-04-21T03:36:32.924Z,683.22
2024-04-21T03:37:28.374Z,683.18
2024-04-21T03:38:24.309Z,683.16
2024-04-21T03:39:19.459Z,683.08
2024-04-21T03:40:15.582Z,683.02
2024-04-21T03:41:10.686Z,683.02
2024-04-21T03:42:05.787Z,683.06
2024-04-21T03:43:01.519Z,683.06
2024-04-21T03:43:56.864Z,683.04
2024-04-21T03:44:52.685Z,683.04
2024-04-21T03:45:47.805Z,683.06
2024-04-21T03:46:42.982Z,683.06
2024-04-21T03:47:38.324Z,683.01
2024-04-21T03:48:33.567Z,682.97
2024-04-21T03:49:28.877Z,682.97
2024-04-21T03:50:23.933Z,682.91
2024-04-21T03:51:19.099Z,682.83
2024-04-21T03:52:14.434Z,682.85
2024-04-21T03:53:10.675Z,682.89
2024-04-21T03:54:05.736Z,682.93
2024-04-21T03:55:00.833Z,682.91
2024-04-21T03:56:00.050Z,682.91
2024-04-21T03:56:55.226Z,682.91
2024-04-21T03:57:50.394Z,682.89
2024-04-21T04:00:10.552Z,682.46
2024-04-21T04:01:05.461Z,682.67
2024-04-21T04:02:00.568Z,682.77
2024-04-21T04:02:55.777Z,682.79
2024-04-21T04:03:51.007Z,682.87
2024-04-21T04:04:46.114Z,682.91
2024-04-21T04:05:41.089Z,682.93
2024-04-21T04:06:36.250Z,683.01
2024-04-21T04:07:31.511Z,683.06
2024-04-21T04:08:26.520Z,683.14
2024-04-21T04:09:21.721Z,683.22
2024-04-21T04:10:17.201Z,683.34
2024-04-21T04:11:12.231Z,683.46
2024-04-21T04:12:07.191Z,683.52
2024-04-21T04:13:02.391Z,683.48
2024-04-21T04:13:57.555Z,683.50
2024-04-21T04:14:52.851Z,683.46
2024-04-21T04:15:47.936Z,683.44
2024-04-21T04:16:43.065Z,683.44
2024-04-21T04:17:38.294Z,683.38
2024-04-21T04:18:33.453Z,683.32
2024-04-21T04:19:28.822Z,683.32
2024-04-21T04:20:23.756Z,683.34
2024-04-21T04:21:18.758Z,683.36
2024-04-21T04:22:13.952Z,683.34
2024-04-21T04:23:09.115Z,683.36
2024-04-21T04:24:04.353Z,683.34
2024-04-21T04:24:59.740Z,683.36
2024-04-21T04:25:54.686Z,683.32
2024-04-21T04:26:49.931Z,683.30
2024-04-21T04:27:45.106Z,683.20
2024-04-21T04:28:40.368Z,683.18
2024-04-21T04:29:35.669Z,683.14
2024-04-21T04:30:31.050Z,683.16
2024-04-21T04:31:26.246Z,683.14
2024-04-21T04:32:21.534Z,683.16
2024-04-21T04:33:17.028Z,683.16
2024-04-21T04:34:12.067Z,683.12
2024-04-21T04:35:07.473Z,683.08
2024-04-21T04:36:02.610Z,683.06
2024-04-21T04:36:58.004Z,683.08
2024-04-21T04:37:55.285Z,683.06
2024-04-21T04:38:48.364Z,683.01
2024-04-21T04:39:43.730Z,682.99
2024-04-21T04:40:39.132Z,683.06
2024-04-21T04:41:34.193Z,683.10
2024-04-21T04:42:29.560Z,683.10
2024-04-21T04:43:24.750Z,683.10
2024-04-21T04:44:19.837Z,683.10
2024-04-21T04:45:15.077Z,683.04
2024-04-21T04:46:10.371Z,683.06
2024-04-21T04:47:05.822Z,683.01
2024-04-21T04:48:00.993Z,683.01
2024-04-21T04:48:56.219Z,682.99
2024-04-21T04:49:51.499Z,682.93
2024-04-21T04:50:46.892Z,682.91
2024-04-21T04:51:42.040Z,682.89
2024-04-21T04:52:37.235Z,682.85
2024-04-21T04:53:32.672Z,682.87
2024-04-21T04:54:27.768Z,682.91
2024-04-21T04:55:23.175Z,682.89
2024-04-21T04:56:18.235Z,682.91
2024-04-21T04:57:13.484Z,682.93
2024-04-21T04:58:08.781Z,682.95
2024-04-21T04:59:06.634Z,682.93
2024-04-21T04:59:59.280Z,682.91
2024-04-21T05:00:54.577Z,682.95
2024-04-21T05:01:50.061Z,682.93
2024-04-21T05:02:45.215Z,682.91
2024-04-21T05:03:41.649Z,682.93
2024-04-21T05:04:37.057Z,682.93
2024-04-21T05:05:32.160Z,682.97
2024-04-21T05:06:27.310Z,683.02
2024-04-21T05:07:22.751Z,683.08
2024-04-21T05:08:17.712Z,683.12
2024-04-21T05:09:12.981Z,683.14
2024-04-21T05:10:08.280Z,683.14
2024-04-21T05:11:03.590Z,683.16
2024-04-21T05:11:59.023Z,683.22
2024-04-21T05:12:54.331Z,683.20
2024-04-21T05:13:49.485Z,683.20
2024-04-21T05:14:44.771Z,683.24
2024-04-21T05:15:40.237Z,683.28
2024-04-21T05:16:35.439Z,683.32
2024-04-21T05:17:30.972Z,683.36
2024-04-21T05:18:26.115Z,683.36
2024-04-21T05:19:21.351Z,683.36
2024-04-21T05:20:16.759Z,683.32
2024-04-21T05:21:11.957Z,683.32
2024-04-21T05:22:07.184Z,683.32
2024-04-21T05:23:02.717Z,683.32
2024-04-21T05:23:57.772Z,683.32
2024-04-21T05:24:53.050Z,683.34
2024-04-21T05:25:48.338Z,683.36
2024-04-21T05:26:43.606Z,683.30
2024-04-21T05:27:39.048Z,683.30
2024-04-21T05:28:44.946Z,683.28
2024-04-21T05:29:30.376Z,683.28
2024-04-21T05:30:24.582Z,683.30
2024-04-21T05:31:19.925Z,683.32
2024-04-21T05:32:15.263Z,683.24
2024-04-21T05:33:10.597Z,683.26
2024-04-21T05:34:06.042Z,683.24
2024-04-21T05:35:02.126Z,683.26
2024-04-21T05:35:57.265Z,683.26
2024-04-21T05:36:52.593Z,683.26
2024-04-21T05:37:47.908Z,683.24
2024-04-21T05:38:43.045Z,683.22
2024-04-21T05:39:38.302Z,683.28
2024-04-21T05:40:33.552Z,683.30
2024-04-21T05:41:28.743Z,683.28
2024-04-21T05:42:24.130Z,683.28
2024-04-21T05:43:19.338Z,683.26
2024-04-21T05:44:14.296Z,683.22
2024-04-21T05:45:09.331Z,683.22
2024-04-21T05:46:04.439Z,683.08
2024-04-21T05:46:59.374Z,683.01
2024-04-21T05:47:54.531Z,683.02
2024-04-21T05:48:49.818Z,683.02
2024-04-21T05:49:44.541Z,682.99
2024-04-21T05:50:39.556Z,683.01
2024-04-21T05:51:34.659Z,683.01
2024-04-21T05:52:30.502Z,683.02
2024-04-21T05:53:25.535Z,683.01
2024-04-21T05:54:20.655Z,682.97
2024-04-21T05:55:15.784Z,682.93
2024-04-21T05:56:10.703Z,682.85
2024-04-21T05:57:05.731Z,682.77
2024-04-21T05:58:00.844Z,682.77
2024-04-21T05:58:55.904Z,682.75
2024-04-21T05:59:51.103Z,682.71
2024-04-21T06:00:46.048Z,682.69
2024-04-21T06:01:41.003Z,682.69
2024-04-21T06:02:36.088Z,682.67
2024-04-21T06:03:31.093Z,682.67
2024-04-21T06:04:26.264Z,682.69
2024-04-21T06:05:21.446Z,682.71
2024-04-21T06:06:16.335Z,682.69
2024-04-21T06:07:11.359Z,682.75
2024-04-21T06:08:06.415Z,682.93
2024-04-21T06:09:05.511Z,683.02
2024-04-21T06:10:00.830Z,683.08
2024-04-21T06:10:55.614Z,683.10
2024-04-21T06:11:50.862Z,683.14
2024-04-21T06:12:45.816Z,683.16
2024-04-21T06:13:40.964Z,683.14
2024-04-21T06:14:35.957Z,683.16
2024-04-21T06:15:31.200Z,683.12
2024-04-21T06:16:26.272Z,683.04
2024-04-21T06:17:21.696Z,683.02
2024-04-21T06:18:16.962Z,682.97
2024-04-21T06:19:12.169Z,682.95
2024-04-21T06:20:07.665Z,682.93
2024-04-21T06:21:02.840Z,682.99
2024-04-21T06:21:58.258Z,683.06
2024-04-21T06:22:53.554Z,683.04
2024-04-21T06:23:48.986Z,683.12
2024-04-21T06:24:44.253Z,683.16
2024-04-21T06:25:39.699Z,683.24
2024-04-21T06:26:34.935Z,683.28
2024-04-21T06:27:30.175Z,683.30
2024-04-21T06:28:25.573Z,683.20
2024-04-21T06:29:20.884Z,683.08
2024-04-21T06:30:16.220Z,682.97
2024-04-21T06:31:11.902Z,682.91
2024-04-21T06:32:07.047Z,682.81
2024-04-21T06:33:02.422Z,682.69
2024-04-21T06:33:57.635Z,682.65
2024-04-21T06:34:52.982Z,682.63
2024-04-21T06:35:48.635Z,682.55
2024-04-21T06:36:43.661Z,682.42
2024-04-21T06:37:38.921Z,682.29
2024-04-21T06:38:34.285Z,682.25
2024-04-21T06:39:29.706Z,682.19
2024-04-21T06:40:26.829Z,682.19
2024-04-21T06:41:22.094Z,682.15
2024-04-21T06:42:17.401Z,682.15
2024-04-21T06:43:12.755Z,682.13
2024-04-21T06:44:08.070Z,682.11
2024-04-21T06:45:03.441Z,682.09
2024-04-21T06:45:58.779Z,682.07
2024-04-21T06:46:53.667Z,682.05
2024-04-21T06:47:48.773Z,682.05
2024-04-21T06:48:46.553Z,682.07
2024-04-21T06:49:41.428Z,682.11
2024-04-21T06:50:36.526Z,682.23
2024-04-21T06:51:31.695Z,682.25
2024-04-21T06:52:26.571Z,682.25
2024-04-21T06:53:21.556Z,682.27
2024-04-21T06:54:16.687Z,682.31
2024-04-21T06:55:11.821Z,682.33
2024-04-21T06:56:06.957Z,682.31
2024-04-21T06:57:02.167Z,682.29
2024-04-21T06:57:57.030Z,682.33
2024-04-21T06:58:52.044Z,682.35
2024-04-21T06:59:47.048Z,682.35
2024-04-21T07:00:42.172Z,682.33
2024-04-21T07:01:37.437Z,682.36
2024-04-21T07:02:32.716Z,682.42
2024-04-21T07:03:28.135Z,682.48
2024-04-21T07:04:23.552Z,682.55
2024-04-21T07:05:19.129Z,682.61
2024-04-21T07:06:14.340Z,682.65
2024-04-21T07:07:09.782Z,682.73
2024-04-21T07:08:05.174Z,682.81
2024-04-21T07:09:00.582Z,682.85
2024-04-21T07:09:55.923Z,682.87
2024-04-21T07:10:51.261Z,682.91
2024-04-21T07:11:46.600Z,682.95
2024-04-21T07:12:41.958Z,683.06
2024-04-21T07:13:37.319Z,683.14
2024-04-21T07:14:32.635Z,683.12
2024-04-21T07:15:28.192Z,683.14
2024-04-21T07:16:23.501Z,683.12
2024-04-21T07:17:18.915Z,683.12
2024-04-21T07:18:14.478Z,683.14
2024-04-21T07:19:09.737Z,683.12
2024-04-21T07:20:05.082Z,683.14
2024-04-21T07:21:00.430Z,683.26
2024-04-21T07:21:55.681Z,683.30
2024-04-21T07:22:50.624Z,683.32
2024-04-21T07:23:45.763Z,683.32
2024-04-21T07:24:40.760Z,683.34
2024-04-21T07:25:35.921Z,683.36
2024-04-21T07:26:30.991Z,683.42
2024-04-21T07:27:26.261Z,683.48
2024-04-21T07:28:23.559Z,683.48
2024-04-21T07:29:18.481Z,683.48
2024-04-21T07:30:13.537Z,683.54
2024-04-21T07:32:13.661Z,683.24
2024-04-21T07:33:09.050Z,683.44
2024-04-21T07:34:04.350Z,683.52
2024-04-21T07:34:59.525Z,683.52
2024-04-21T07:35:54.854Z,683.60
2024-04-21T07:36:50.277Z,683.65
2024-04-21T07:37:45.727Z,683.67
2024-04-21T07:38:40.993Z,683.71
2024-04-21T07:39:36.349Z,683.67
2024-04-21T07:40:31.785Z,683.64
2024-04-21T07:41:27.146Z,683.65
2024-04-21T07:42:22.622Z,683.65
2024-04-21T07:43:17.912Z,683.67
2024-04-21T07:44:13.299Z,683.67
2024-04-21T07:45:08.767Z,683.64
2024-04-21T07:46:04.078Z,683.62
2024-04-21T07:46:59.447Z,683.58
2024-04-21T07:47:54.995Z,683.62
2024-04-21T07:48:50.416Z,683.64
2024-04-21T07:49:45.703Z,683.65
2024-04-21T07:50:41.122Z,683.65
2024-04-21T07:51:36.517Z,683.58
2024-04-21T07:52:32.085Z,683.60
2024-04-21T07:53:27.440Z,683.62
2024-04-21T07:54:22.853Z,683.67
2024-04-21T07:55:18.555Z,683.67
2024-04-21T07:56:13.899Z,683.65
2024-04-21T07:57:09.133Z,683.62
2024-04-21T07:58:04.757Z,683.54
2024-04-21T07:58:59.975Z,683.52
2024-04-21T07:59:55.368Z,683.44
2024-04-21T08:00:50.794Z,683.44
2024-04-21T08:01:46.117Z,683.42
2024-04-21T08:02:41.762Z,683.36
2024-04-21T08:03:37.127Z,683.30
2024-04-21T08:04:32.310Z,683.22
2024-04-21T08:05:27.854Z,683.18
2024-04-21T08:06:23.112Z,683.22
2024-04-21T08:07:18.673Z,683.20
2024-04-21T08:08:13.743Z,683.20
2024-04-21T08:09:21.323Z,683.14
2024-04-21T08:10:05.451Z,683.08
2024-04-21T08:11:04.515Z,683.02
2024-04-21T08:11:56.115Z,683.02
2024-04-21T08:12:50.639Z,682.93
2024-04-21T08:13:45.863Z,682.97
2024-04-21T08:14:41.260Z,682.89
2024-04-21T08:15:39.565Z,682.91
2024-04-21T08:16:32.132Z,682.89
2024-04-21T08:17:27.506Z,682.91
2024-04-21T08:18:22.878Z,682.85
2024-04-21T08:19:18.124Z,682.87
2024-04-21T08:20:13.439Z,682.91
2024-04-21T08:21:08.787Z,682.93
2024-04-21T08:22:04.282Z,682.85
2024-04-21T08:22:59.554Z,682.81
2024-04-21T08:23:54.993Z,682.79
2024-04-21T08:24:50.508Z,682.75
2024-04-21T08:25:45.776Z,682.73
2024-04-21T08:26:41.107Z,682.83
2024-04-21T08:27:36.460Z,682.87
2024-04-21T08:28:31.929Z,682.89
2024-04-21T08:29:27.175Z,682.89
2024-04-21T08:30:22.589Z,682.89
2024-04-21T08:31:18.047Z,682.89
2024-04-21T08:32:13.457Z,682.89
2024-04-21T08:33:09.042Z,682.91
2024-04-21T08:34:04.176Z,682.87
2024-04-21T08:34:59.641Z,682.79
2024-04-21T08:35:54.863Z,682.77
2024-04-21T08:36:50.406Z,682.77
2024-04-21T08:37:45.827Z,682.83
2024-04-21T08:38:41.099Z,682.89
2024-04-21T08:39:36.469Z,682.83
2024-04-21T08:40:31.921Z,682.89
2024-04-21T08:41:27.319Z,682.95
2024-04-21T08:42:22.660Z,682.99
2024-04-21T08:43:18.157Z,683.01
2024-04-21T08:44:13.335Z,683.04
2024-04-21T08:45:08.850Z,683.06
2024-04-21T08:46:04.190Z,683.10
2024-04-21T08:46:59.528Z,683.10
2024-04-21T08:47:54.875Z,683.10
2024-04-21T08:48:50.326Z,683.18
2024-04-21T08:49:45.587Z,683.24
2024-04-21T08:50:41.033Z,683.30
2024-04-21T08:51:36.407Z,683.34
2024-04-21T08:52:31.819Z,683.40
2024-04-21T08:53:27.385Z,683.42
2024-04-21T08:54:22.680Z,683.46
2024-04-21T08:55:18.245Z,683.42
2024-04-21T08:56:13.428Z,683.46
2024-04-21T08:57:08.798Z,683.52
2024-04-21T08:58:04.252Z,683.60
2024-04-21T08:58:59.784Z,683.67
2024-04-21T08:59:55.070Z,683.75
2024-04-21T09:00:50.586Z,683.77
2024-04-21T09:01:45.825Z,683.77
2024-04-21T09:02:41.272Z,683.69
2024-04-21T09:03:36.774Z,683.67
2024-04-21T09:04:33.502Z,683.65
2024-04-21T09:05:27.474Z,683.65
2024-04-21T09:06:22.760Z,683.69
2024-04-21T09:07:18.151Z,683.69
2024-04-21T09:08:13.448Z,683.73
2024-04-21T09:09:09.076Z,683.77
2024-04-21T09:10:04.266Z,683.81
2024-04-21T09:10:59.589Z,683.85
2024-04-21T09:11:54.872Z,683.95
2024-04-21T09:12:50.254Z,684.03
2024-04-21T09:13:45.616Z,684.11
2024-04-21T09:14:41.176Z,684.23
2024-04-21T09:15:36.533Z,684.25
2024-04-21T09:16:31.831Z,684.25
2024-04-21T09:17:27.252Z,684.19
2024-04-21T09:18:22.561Z,684.13
2024-04-21T09:19:18.160Z,684.09
2024-04-21T09:20:13.435Z,684.07
2024-04-21T09:21:08.918Z,684.09
2024-04-21T09:22:04.401Z,684.07
2024-04-21T09:22:59.847Z,684.07
2024-04-21T09:23:55.477Z,684.07
2024-04-21T09:24:50.822Z,684.05
2024-04-21T09:25:46.244Z,684.07
2024-04-21T09:26:41.719Z,684.09
2024-04-21T09:27:37.121Z,684.15
2024-04-21T09:28:32.592Z,684.19
2024-04-21T09:29:28.023Z,684.28
2024-04-21T09:30:23.400Z,684.38
2024-04-21T09:31:18.946Z,684.42
2024-04-21T09:32:14.243Z,684.48
2024-04-21T09:33:09.764Z,684.56
2024-04-21T09:34:05.098Z,684.54
2024-04-21T09:35:00.438Z,684.60
2024-04-21T09:35:55.786Z,684.68
2024-04-21T09:36:51.208Z,684.72
2024-04-21T09:37:46.627Z,684.72
2024-04-21T09:38:42.153Z,684.78
2024-04-21T09:39:37.410Z,684.78
2024-04-21T09:40:32.803Z,684.82
2024-04-21T09:41:28.308Z,684.84
2024-04-21T09:42:23.562Z,684.86
2024-04-21T09:43:19.127Z,684.80
2024-04-21T09:44:14.300Z,684.74
2024-04-21T09:45:09.696Z,684.82
2024-04-21T09:46:05.086Z,684.92
2024-04-21T09:47:00.551Z,684.94
2024-04-21T09:47:55.960Z,684.92
2024-04-21T09:48:51.606Z,684.84
2024-04-21T09:49:46.788Z,684.78
2024-04-21T09:50:42.166Z,684.78
2024-04-21T09:51:37.684Z,684.78
2024-04-21T09:52:32.993Z,684.88
2024-04-21T09:53:28.436Z,684.97
2024-04-21T09:54:23.781Z,685.03
2024-04-21T09:55:19.266Z,685.14
2024-04-21T09:56:14.752Z,685.22
2024-04-21T09:57:10.180Z,685.22
2024-04-21T09:58:05.609Z,685.26
2024-04-21T09:59:01.125Z,685.22
2024-04-21T09:59:56.306Z,685.22
2024-04-21T10:00:51.835Z,685.22
2024-04-21T10:01:47.239Z,685.22
2024-04-21T10:02:42.653Z,685.26
2024-04-21T10:03:38.035Z,685.26
2024-04-21T10:04:33.538Z,685.24
2024-04-21T10:05:28.867Z,685.30
2024-04-21T10:06:24.338Z,685.34
2024-04-21T10:07:19.906Z,685.30
2024-04-21T10:08:15.829Z,685.30
2024-04-21T10:09:10.536Z,685.32
2024-04-21T10:10:06.157Z,685.32
2024-04-21T10:11:01.457Z,685.36
2024-04-21T10:11:56.787Z,685.40
2024-04-21T10:12:52.319Z,685.32
2024-04-21T10:13:47.608Z,685.24
2024-04-21T10:14:43.070Z,685.22
2024-04-21T10:15:38.406Z,685.24
2024-04-21T10:16:33.828Z,685.22
2024-04-21T10:17:29.436Z,685.20
2024-04-21T10:18:25.263Z,685.26
2024-04-21T10:19:20.096Z,685.30
2024-04-21T10:20:15.286Z,685.38
2024-04-21T10:21:10.695Z,685.36
2024-04-21T10:22:06.127Z,685.42
2024-04-21T10:23:01.560Z,685.50
2024-04-21T10:23:57.032Z,685.52
2024-04-21T10:24:52.523Z,685.58
2024-04-21T10:25:47.813Z,685.64
2024-04-21T10:26:43.176Z,685.68
2024-04-21T10:27:38.844Z,685.71
2024-04-21T10:28:34.112Z,685.73
2024-04-21T10:29:29.388Z,685.73
2024-04-21T10:30:24.792Z,685.66
2024-04-21T10:31:20.288Z,685.62
2024-04-21T10:32:15.644Z,685.56
2024-04-21T10:33:11.191Z,685.52
2024-04-21T10:34:06.328Z,685.44
2024-04-21T10:35:01.812Z,685.48
2024-04-21T10:35:57.102Z,685.52
2024-04-21T10:36:52.565Z,685.58
2024-04-21T10:37:48.579Z,685.58
2024-04-21T10:38:43.372Z,685.58
2024-04-21T10:39:38.790Z,685.64
2024-04-21T10:40:34.557Z,685.62
2024-04-21T10:41:29.563Z,685.60
2024-04-21T10:42:24.943Z,685.52
2024-04-21T10:43:20.507Z,685.52
2024-04-21T10:44:15.820Z,685.52
2024-04-21T10:45:11.418Z,685.56
2024-04-21T10:46:06.716Z,685.60
2024-04-21T10:47:01.982Z,685.64
2024-04-21T10:47:57.452Z,685.71
2024-04-21T10:48:52.802Z,685.77
2024-04-21T10:49:49.878Z,685.79
2024-04-21T10:50:43.923Z,685.77
2024-04-21T10:51:40.548Z,685.73
2024-04-21T10:52:35.920Z,685.79
2024-04-21T10:53:31.510Z,685.77
2024-04-21T10:54:26.844Z,685.85
2024-04-21T10:55:22.376Z,685.89
2024-04-21T10:56:17.984Z,685.97
2024-04-21T10:57:13.324Z,685.99
2024-04-21T10:58:08.825Z,685.97
2024-04-21T10:59:04.155Z,685.99
2024-04-21T10:59:59.643Z,686.01
2024-04-21T11:00:54.994Z,686.01
2024-04-21T11:01:53.060Z,686.01
2024-04-21T11:02:45.775Z,686.05
2024-04-21T11:03:41.168Z,686.11
2024-04-21T11:04:40.529Z,686.15
2024-04-21T11:05:36.129Z,686.13
2024-04-21T11:06:31.436Z,686.11
2024-04-21T11:07:26.973Z,686.09
2024-04-21T11:08:22.365Z,686.07
2024-04-21T11:09:17.773Z,685.97
2024-04-21T11:10:13.546Z,685.99
2024-04-21T11:11:08.750Z,685.99
2024-04-21T11:12:04.177Z,686.03
2024-04-21T11:12:59.475Z,686.09
2024-04-21T11:13:55.186Z,686.17
2024-04-21T11:14:50.371Z,686.19
2024-04-21T11:15:45.955Z,686.25
2024-04-21T11:16:41.404Z,686.30
2024-04-21T11:17:36.941Z,686.25
2024-04-21T11:18:32.040Z,686.17
2024-04-21T11:19:27.078Z,686.13
2024-04-21T11:20:22.383Z,686.09
2024-04-21T11:21:17.216Z,686.11
2024-04-21T11:22:12.324Z,686.13
2024-04-21T11:23:07.377Z,686.07
2024-04-21T11:24:02.440Z,686.01
2024-04-21T11:24:57.542Z,686.01
2024-04-21T11:25:54.774Z,686.05
2024-04-21T11:26:47.583Z,686.05
2024-04-21T11:27:44.660Z,685.99
2024-04-21T11:28:39.866Z,685.97
2024-04-21T11:29:34.922Z,685.97
2024-04-21T11:30:30.025Z,685.99
2024-04-21T11:31:26.235Z,686.05
2024-04-21T11:32:21.501Z,686.03